createdAt,value
2023-02-02T00:01:30.740Z,5.45
2023-02-02T00:04:35.297Z,6.22
2023-02-02T00:07:37.331Z,9.02
2023-02-02T00:10:40.225Z,9.50
2023-02-02T00:13:42.442Z,7.62
2023-02-02T00:16:50.338Z,9.80
2023-02-02T00:19:52.561Z,9.40
2023-02-02T00:22:54.699Z,8.50
2023-02-02T00:25:56.795Z,8.73
2023-02-02T00:28:59.203Z,9.77
2023-02-02T00:32:01.320Z,10.10
2023-02-02T00:35:03.501Z,9.32
2023-02-02T00:38:06.023Z,10.20
2023-02-02T00:41:08.930Z,10.90
2023-02-02T00:44:30.128Z,10.10
2023-02-02T00:47:32.243Z,10.25
2023-02-02T00:50:34.347Z,10.05
2023-02-02T00:53:36.579Z,10.73
2023-02-02T00:56:38.713Z,11.13
2023-02-02T00:59:41.739Z,8.45
2023-02-02T01:02:45.174Z,10.93
2023-02-02T01:05:47.418Z,10.00
2023-02-02T01:08:49.697Z,12.63
2023-02-02T01:11:51.956Z,13.20
2023-02-02T01:14:54.048Z,11.88
2023-02-02T01:17:57.712Z,13.02
2023-02-02T01:21:05.830Z,12.63
2023-02-02T01:24:08.332Z,12.65
2023-02-02T01:27:10.457Z,12.17
2023-02-02T01:30:12.967Z,12.60
2023-02-02T01:33:15.990Z,10.68
2023-02-02T01:36:21.148Z,11.23
2023-02-02T01:39:23.345Z,12.77
2023-02-02T01:42:26.401Z,11.47
2023-02-02T01:45:29.973Z,11.40
2023-02-02T01:48:35.111Z,11.32
2023-02-02T01:51:59.306Z,12.43
2023-02-02T01:55:08.622Z,11.90
2023-02-02T01:58:17.395Z,12.10
2023-02-02T02:01:19.967Z,12.90
2023-02-02T02:04:24.313Z,12.45
2023-02-02T02:07:26.475Z,12.05
2023-02-02T02:10:28.702Z,12.77
2023-02-02T02:13:51.302Z,12.13
2023-02-02T02:16:53.392Z,12.98
2023-02-02T02:21:05.449Z,13.43
2023-02-02T02:24:57.960Z,12.75
2023-02-02T02:28:24.763Z,13.38
2023-02-02T02:32:00.145Z,12.30
2023-02-02T02:35:14.399Z,12.88
2023-02-02T02:38:45.208Z,14.27
2023-02-02T02:41:51.376Z,12.32
2023-02-02T02:44:56.553Z,13.35
2023-02-02T02:47:58.869Z,11.23
2023-02-02T02:51:44.997Z,14.07
2023-02-02T02:54:49.976Z,13.43
2023-02-02T02:58:24.423Z,11.18
2023-02-02T03:01:48.807Z,9.45
2023-02-02T03:05:16.682Z,10.93
2023-02-02T03:08:32.968Z,12.68
2023-02-02T03:11:35.707Z,12.75
2023-02-02T03:14:39.589Z,13.18
2023-02-02T03:17:43.427Z,13.35
2023-02-02T03:20:46.338Z,12.97
2023-02-02T03:23:48.765Z,13.43
2023-02-02T03:26:51.667Z,11.63
2023-02-02T03:29:54.585Z,12.52
2023-02-02T03:32:56.851Z,14.18
2023-02-02T03:35:59.337Z,10.93
2023-02-02T03:39:01.440Z,13.73
2023-02-02T03:42:03.708Z,11.40
2023-02-02T03:45:06.529Z,9.32
2023-02-02T03:48:08.698Z,10.07
2023-02-02T03:51:13.848Z,3.27
2023-02-02T03:54:15.985Z,6.53
2023-02-02T03:57:18.266Z,2.90
2023-02-02T04:00:20.857Z,2.75
2023-02-02T04:03:22.969Z,3.47
2023-02-02T04:06:26.305Z,2.63
2023-02-02T04:09:28.617Z,2.30
2023-02-02T04:12:30.661Z,1.52
2023-02-02T04:15:32.762Z,0.50
2023-02-02T04:18:34.947Z,0.62
2023-02-02T04:21:37.072Z,0.30
2023-02-02T04:24:39.302Z,0.50
2023-02-02T04:27:41.453Z,0.65
2023-02-02T04:30:43.620Z,0.45
2023-02-02T04:33:45.789Z,0.20
2023-02-02T04:36:48.095Z,0.23
2023-02-02T04:39:50.915Z,0.35
2023-02-02T04:42:53.152Z,0.13
2023-02-02T04:45:57.251Z,0.20
2023-02-02T04:48:59.464Z,0.20
2023-02-02T04:52:01.645Z,0.10
2023-02-02T04:55:04.065Z,0.20
2023-02-02T04:58:06.709Z,0.10
2023-02-02T05:01:12.145Z,0.00
2023-02-02T05:04:14.342Z,0.20
2023-02-02T05:07:16.498Z,0.20
2023-02-02T05:10:18.806Z,0.20
2023-02-02T05:13:21.065Z,0.20
2023-02-02T05:16:23.876Z,0.10
2023-02-02T05:19:26.153Z,0.17
2023-02-02T05:22:29.616Z,0.10
2023-02-02T05:25:31.880Z,0.10
2023-02-02T05:28:35.860Z,0.10
2023-02-02T05:31:38.282Z,0.20
2023-02-02T05:34:40.409Z,0.20
2023-02-02T05:37:43.011Z,0.20
2023-02-02T05:40:45.277Z,0.57
2023-02-02T05:43:47.467Z,0.55
2023-02-02T05:46:49.566Z,0.40
2023-02-02T05:49:51.733Z,1.20
2023-02-02T05:52:53.967Z,0.10
2023-02-02T05:55:56.128Z,0.62
2023-02-02T05:58:58.983Z,0.20
2023-02-02T06:02:01.598Z,0.10
2023-02-02T06:05:03.825Z,0.40
2023-02-02T06:08:06.621Z,0.43
2023-02-02T06:11:13.235Z,0.30
2023-02-02T06:14:15.508Z,0.22
2023-02-02T06:17:17.670Z,0.40
2023-02-02T06:20:22.276Z,0.50
2023-02-02T06:23:25.423Z,1.10
2023-02-02T06:26:28.056Z,0.30
2023-02-02T06:29:30.223Z,0.40
2023-02-02T06:32:32.559Z,0.10
2023-02-02T06:35:35.137Z,0.75
2023-02-02T06:38:37.486Z,0.20
2023-02-02T06:41:40.595Z,0.60
2023-02-02T06:44:42.790Z,0.60
2023-02-02T06:47:44.809Z,0.30
2023-02-02T06:50:47.286Z,0.20
2023-02-02T06:53:50.063Z,0.40
2023-02-02T06:56:52.176Z,0.20
2023-02-02T06:59:54.289Z,0.30
2023-02-02T07:02:57.128Z,0.20
2023-02-02T07:06:00.307Z,0.47
2023-02-02T07:09:03.480Z,0.33
2023-02-02T07:12:07.123Z,0.70
2023-02-02T07:15:09.566Z,0.60
2023-02-02T07:18:11.690Z,0.60
2023-02-02T07:21:19.580Z,0.60
2023-02-02T07:24:21.786Z,0.80
2023-02-02T07:27:23.858Z,0.85
2023-02-02T07:30:29.973Z,1.60
2023-02-02T07:33:32.756Z,1.30
2023-02-02T07:36:35.284Z,1.20
2023-02-02T07:39:37.361Z,1.00
2023-02-02T07:42:39.678Z,1.27
2023-02-02T07:45:42.319Z,1.08
2023-02-02T07:48:45.011Z,1.23
2023-02-02T07:51:49.333Z,0.90
2023-02-02T07:55:02.536Z,0.60
2023-02-02T07:58:15.037Z,0.62
2023-02-02T08:01:17.628Z,1.00
2023-02-02T08:04:20.018Z,0.60
2023-02-02T08:07:24.940Z,1.00
2023-02-02T08:10:27.171Z,1.30
2023-02-02T08:13:29.359Z,1.40
2023-02-02T08:16:32.702Z,1.35
2023-02-02T08:19:34.836Z,0.82
2023-02-02T08:22:37.822Z,1.55
2023-02-02T08:25:40.244Z,1.17
2023-02-02T08:28:45.409Z,1.30
2023-02-02T08:31:48.304Z,2.00
2023-02-02T08:34:52.018Z,1.35
2023-02-02T08:37:54.127Z,1.25
2023-02-02T08:40:57.514Z,1.80
2023-02-02T08:43:59.901Z,1.15
2023-02-02T08:47:02.097Z,0.90
2023-02-02T08:50:05.064Z,0.50
2023-02-02T08:53:07.269Z,0.98
2023-02-02T08:56:18.361Z,0.90
2023-02-02T08:59:20.845Z,1.58
2023-02-02T09:02:22.986Z,2.22
2023-02-02T09:05:27.817Z,2.65
2023-02-02T09:08:30.109Z,3.17
2023-02-02T09:11:32.263Z,1.63
2023-02-02T09:14:34.565Z,1.77
2023-02-02T09:17:36.696Z,1.60
2023-02-02T09:20:39.279Z,1.65
2023-02-02T09:23:42.885Z,2.10
2023-02-02T09:26:45.890Z,2.17
2023-02-02T09:29:48.869Z,2.47
2023-02-02T09:32:51.297Z,3.03
2023-02-02T09:35:53.407Z,2.47
2023-02-02T09:38:55.772Z,2.03
2023-02-02T09:42:31.615Z,2.33
2023-02-02T09:45:51.836Z,2.50
2023-02-02T09:49:03.818Z,3.17
2023-02-02T09:52:18.787Z,2.55
2023-02-02T09:55:36.230Z,3.10
2023-02-02T09:58:51.324Z,3.13
2023-02-02T10:02:03.405Z,3.85
2023-02-02T10:05:15.781Z,2.97
2023-02-02T10:08:41.574Z,3.97
2023-02-02T10:12:05.379Z,4.20
2023-02-02T10:15:46.257Z,3.63
2023-02-02T10:18:59.475Z,3.90
2023-02-02T10:22:19.799Z,3.70
2023-02-02T10:25:26.421Z,3.97
2023-02-02T10:29:03.066Z,4.32
2023-02-02T10:32:23.497Z,3.93
2023-02-02T10:35:44.243Z,4.43
2023-02-02T10:39:18.172Z,4.62
2023-02-02T10:42:44.618Z,3.97
2023-02-02T10:45:50.434Z,4.20
2023-02-02T10:49:11.999Z,4.77
2023-02-02T10:52:17.873Z,4.53
2023-02-02T10:55:28.526Z,3.83
2023-02-02T10:58:39.183Z,4.25
2023-02-02T11:01:41.648Z,2.87
2023-02-02T11:05:02.295Z,4.53
2023-02-02T11:08:15.888Z,3.33
2023-02-02T11:11:21.743Z,3.60
2023-02-02T11:14:47.294Z,2.85
2023-02-02T11:17:49.484Z,3.17
2023-02-02T11:20:51.733Z,3.63
2023-02-02T11:24:01.411Z,3.65
2023-02-02T11:27:12.736Z,3.85
2023-02-02T11:30:27.484Z,3.05
2023-02-02T11:33:35.467Z,4.10
2023-02-02T11:36:37.541Z,12.57
2023-02-02T11:39:43.628Z,6.62
2023-02-02T11:42:48.072Z,5.72
2023-02-02T11:45:57.197Z,5.87
2023-02-02T11:49:03.365Z,5.05
2023-02-02T11:52:14.916Z,5.07
2023-02-02T11:55:23.574Z,4.60
2023-02-02T11:58:28.879Z,4.65
2023-02-02T12:01:39.897Z,4.70
2023-02-02T12:04:42.140Z,6.25
2023-02-02T12:07:44.829Z,5.33
2023-02-02T12:11:02.335Z,3.97
2023-02-02T12:14:12.202Z,3.10
2023-02-02T12:17:52.471Z,3.10
2023-02-02T12:21:06.130Z,2.50
2023-02-02T12:24:26.973Z,2.90
2023-02-02T12:27:50.529Z,2.10
2023-02-02T12:31:00.036Z,2.78
2023-02-02T12:34:27.428Z,3.25
2023-02-02T12:37:49.813Z,2.30
2023-02-02T12:41:30.144Z,2.83
2023-02-02T12:45:02.140Z,2.50
2023-02-02T12:48:24.411Z,3.20
2023-02-02T12:51:26.523Z,3.50
2023-02-02T12:54:45.536Z,2.95
2023-02-02T12:58:20.369Z,2.50
2023-02-02T13:01:49.226Z,3.42
2023-02-02T13:08:45.669Z,3.47
2023-02-02T13:12:19.052Z,5.03
2023-02-02T13:15:24.782Z,4.60
2023-02-02T13:18:31.987Z,3.85
2023-02-02T13:21:37.368Z,5.10
2023-02-02T13:24:43.641Z,5.15
2023-02-02T13:27:47.071Z,5.05
2023-02-02T13:30:51.204Z,5.00
2023-02-02T13:34:07.435Z,5.30
2023-02-02T13:37:45.471Z,5.07
2023-02-02T13:40:49.001Z,4.80
2023-02-02T13:44:09.607Z,3.95
2023-02-02T13:47:38.643Z,4.17
2023-02-02T13:50:57.991Z,3.80
2023-02-02T13:54:45.906Z,3.50
2023-02-02T13:58:04.740Z,3.25
2023-02-02T14:01:11.028Z,3.17
2023-02-02T14:04:26.631Z,4.30
2023-02-02T14:07:45.543Z,4.60
2023-02-02T14:10:54.074Z,4.87
2023-02-02T14:14:34.698Z,5.10
2023-02-02T14:17:36.714Z,5.15
2023-02-02T14:20:45.063Z,6.67
2023-02-02T14:23:55.563Z,7.62
2023-02-02T14:27:00.917Z,8.20
2023-02-02T14:30:21.459Z,8.25
2023-02-02T14:33:26.949Z,6.22
2023-02-02T14:36:30.258Z,7.17
2023-02-02T14:39:40.903Z,7.22
2023-02-02T14:43:23.337Z,7.22
2023-02-02T14:46:35.034Z,6.82
2023-02-02T14:49:37.327Z,5.22
2023-02-02T14:52:40.073Z,4.27
2023-02-02T14:56:03.232Z,6.37
2023-02-02T14:59:07.480Z,6.30
2023-02-02T15:02:15.455Z,5.30
2023-02-02T15:05:30.806Z,5.93
2023-02-02T15:08:33.095Z,5.70
2023-02-02T15:12:03.587Z,5.30
2023-02-02T15:15:23.419Z,3.03
2023-02-02T15:18:33.334Z,2.00
2023-02-02T15:21:40.648Z,1.10
2023-02-02T15:24:46.134Z,0.47
2023-02-02T15:28:00.334Z,0.98
2023-02-02T15:31:11.713Z,0.70
2023-02-02T15:34:52.875Z,0.70
2023-02-02T15:38:00.841Z,0.52
2023-02-02T15:41:24.308Z,0.20
2023-02-02T15:44:29.936Z,0.22
2023-02-02T15:47:37.573Z,0.13
2023-02-02T15:50:46.427Z,0.20
2023-02-02T15:53:51.908Z,0.30
2023-02-02T15:56:56.167Z,0.30
2023-02-02T15:59:59.381Z,0.30
2023-02-02T16:03:14.105Z,0.30
2023-02-02T16:06:18.464Z,0.20
2023-02-02T16:09:28.836Z,0.20
2023-02-02T16:12:31.717Z,0.30
2023-02-02T16:15:33.903Z,0.50
2023-02-02T16:18:38.065Z,0.35
2023-02-02T16:21:47.958Z,0.30
2023-02-02T16:24:58.028Z,0.20
2023-02-02T16:28:01.061Z,0.30
2023-02-02T16:31:03.828Z,0.35
2023-02-02T16:34:06.027Z,0.50
2023-02-02T16:37:14.929Z,0.30
2023-02-02T16:40:29.445Z,0.40
2023-02-02T16:43:31.845Z,0.40
2023-02-02T16:46:49.693Z,0.50
2023-02-02T16:50:06.373Z,0.20
2023-02-02T16:53:23.042Z,0.40
2023-02-02T16:56:34.617Z,0.20
2023-02-02T16:59:38.691Z,0.10
2023-02-02T17:02:48.319Z,0.17
2023-02-02T17:05:54.240Z,0.20
2023-02-02T17:08:56.592Z,0.30
2023-02-02T17:12:12.137Z,0.40
2023-02-02T17:15:19.696Z,0.30
2023-02-02T17:18:22.110Z,0.50
2023-02-02T17:21:25.980Z,0.40
2023-02-02T17:24:30.237Z,0.50
2023-02-02T17:27:35.173Z,1.20
2023-02-02T17:30:44.114Z,0.67
2023-02-02T17:33:46.283Z,0.65
2023-02-02T17:36:49.226Z,0.70
2023-02-02T17:39:51.544Z,0.50
2023-02-02T17:42:54.227Z,0.43
2023-02-02T17:45:56.613Z,0.50
2023-02-02T17:49:00.397Z,0.50
2023-02-02T17:52:04.089Z,0.40
2023-02-02T17:55:14.296Z,0.70
2023-02-02T17:58:18.175Z,0.60
2023-02-02T18:01:21.193Z,0.50
2023-02-02T18:04:24.889Z,1.10
2023-02-02T18:07:27.528Z,0.25
2023-02-02T18:10:30.383Z,0.50
2023-02-02T18:13:33.825Z,0.68
2023-02-02T18:16:36.831Z,0.60
2023-02-02T18:19:44.857Z,0.50
2023-02-02T18:22:50.039Z,0.57
2023-02-02T18:25:55.265Z,0.50
2023-02-02T18:28:59.320Z,0.40
2023-02-02T18:32:03.174Z,0.40
2023-02-02T18:35:06.701Z,0.30
2023-02-02T18:38:10.558Z,0.50
2023-02-02T18:41:18.350Z,0.30
2023-02-02T18:44:22.516Z,0.47
2023-02-02T18:47:25.688Z,0.50
2023-02-02T18:50:29.026Z,0.40
2023-02-02T18:53:32.481Z,0.50
2023-02-02T18:56:36.112Z,0.50
2023-02-02T18:59:39.091Z,0.50
2023-02-02T19:02:49.551Z,0.27
2023-02-02T19:06:11.323Z,0.60
2023-02-02T19:09:17.355Z,0.40
2023-02-02T19:12:20.306Z,0.90
2023-02-02T19:15:27.043Z,1.40
2023-02-02T19:18:32.011Z,0.83
2023-02-02T19:21:35.056Z,0.90
2023-02-02T19:24:40.361Z,1.08
2023-02-02T19:27:44.760Z,0.80
2023-02-02T19:30:48.935Z,0.75
2023-02-02T19:33:53.298Z,1.10
2023-02-02T19:36:57.058Z,0.93
2023-02-02T19:40:26.177Z,0.82
2023-02-02T19:43:30.393Z,1.37
2023-02-02T19:46:43.030Z,1.50
2023-02-02T19:49:46.525Z,1.27
2023-02-02T19:52:50.947Z,1.50
2023-02-02T19:55:55.697Z,1.30
2023-02-02T19:58:59.796Z,0.70
2023-02-02T20:02:24.201Z,1.30
2023-02-02T20:05:33.393Z,0.90
2023-02-02T20:08:43.726Z,1.08
2023-02-02T20:11:51.868Z,1.52
2023-02-02T20:14:54.834Z,1.12
2023-02-02T20:18:02.192Z,1.00
2023-02-02T20:21:11.256Z,1.33
2023-02-02T20:24:24.699Z,1.40
2023-02-02T20:27:29.359Z,1.40
2023-02-02T20:30:32.383Z,1.17
2023-02-02T20:33:36.213Z,1.65
2023-02-02T20:36:44.270Z,1.57
2023-02-02T20:39:55.520Z,1.30
2023-02-02T20:42:58.864Z,1.45
2023-02-02T20:46:02.012Z,1.60
2023-02-02T20:49:05.694Z,1.90
2023-02-02T20:52:12.195Z,4.07
2023-02-02T20:55:14.597Z,2.45
2023-02-02T20:58:17.158Z,2.10
2023-02-02T21:01:20.177Z,1.30
2023-02-02T21:04:24.588Z,1.30
2023-02-02T21:07:29.184Z,2.00
2023-02-02T21:10:31.917Z,1.58
2023-02-02T21:13:34.771Z,1.50
2023-02-02T21:16:37.544Z,1.40
2023-02-02T21:19:39.879Z,2.00
2023-02-02T21:22:42.655Z,2.50
2023-02-02T21:25:44.807Z,1.90
2023-02-02T21:28:46.976Z,2.87
2023-02-02T21:31:49.353Z,1.77
2023-02-02T21:34:51.627Z,2.40
2023-02-02T21:37:57.958Z,1.80
2023-02-02T21:41:00.290Z,1.90
2023-02-02T21:44:02.509Z,1.70
2023-02-02T21:47:36.016Z,1.50
2023-02-02T21:50:41.551Z,0.80
2023-02-02T21:53:43.914Z,1.23
2023-02-02T21:56:45.980Z,1.08
2023-02-02T21:59:57.551Z,1.15
2023-02-02T22:03:00.118Z,0.98
2023-02-02T22:06:21.289Z,1.00
2023-02-02T22:09:28.253Z,0.73
2023-02-02T22:12:30.825Z,0.85
2023-02-02T22:15:35.768Z,0.90
2023-02-02T22:18:38.422Z,0.70
2023-02-02T22:21:40.509Z,0.80
2023-02-02T22:25:04.409Z,0.73
2023-02-02T22:28:27.780Z,0.85
2023-02-02T22:31:29.896Z,1.00
2023-02-02T22:34:32.052Z,0.98
2023-02-02T22:37:34.405Z,0.82
2023-02-02T22:40:36.702Z,1.07
2023-02-02T22:43:38.727Z,1.10
2023-02-02T22:46:40.808Z,1.10
2023-02-02T22:49:42.958Z,1.02
2023-02-02T22:52:45.443Z,1.00
2023-02-02T22:55:47.464Z,0.67
2023-02-02T22:58:49.508Z,1.30
2023-02-02T23:01:51.685Z,1.20
2023-02-02T23:04:53.709Z,1.10
2023-02-02T23:07:57.157Z,1.30
2023-02-02T23:10:59.732Z,1.87
2023-02-02T23:14:01.867Z,2.08
2023-02-02T23:17:04.109Z,2.60
2023-02-02T23:20:08.793Z,2.92
2023-02-02T23:23:10.882Z,2.78
2023-02-02T23:26:13.242Z,2.33
2023-02-02T23:29:15.769Z,3.03
2023-02-02T23:32:18.192Z,3.15
2023-02-02T23:35:20.694Z,2.95
2023-02-02T23:38:22.867Z,3.00
2023-02-02T23:41:25.070Z,3.27
2023-02-02T23:44:27.652Z,3.55
2023-02-02T23:47:29.825Z,3.75
2023-02-02T23:50:34.154Z,4.77
2023-02-02T23:53:36.506Z,4.07
2023-02-02T23:56:39.379Z,3.58
2023-02-02T23:59:41.639Z,4.82
